sensor_id;sensor_type;location;lat;lon;timestamp;temperature;humidity
36924;DHT22;22841;50.252;18.688;2023-04-15T00:01:28;9.90;99.90
36924;DHT22;22841;50.252;18.688;2023-04-15T00:03:56;9.80;99.90
36924;DHT22;22841;50.252;18.688;2023-04-15T00:06:23;9.80;99.90
36924;DHT22;22841;50.252;18.688;2023-04-15T00:08:49;9.80;99.90
36924;DHT22;22841;50.252;18.688;2023-04-15T00:11:17;9.70;99.90
36924;DHT22;22841;50.252;18.688;2023-04-15T00:13:45;9.70;99.90
36924;DHT22;22841;50.252;18.688;2023-04-15T00:16:11;9.70;99.90
36924;DHT22;22841;50.252;18.688;2023-04-15T00:18:37;9.70;99.90
36924;DHT22;22841;50.252;18.688;2023-04-15T00:21:04;9.60;99.90
36924;DHT22;22841;50.252;18.688;2023-04-15T00:23:30;9.60;99.90
36924;DHT22;22841;50.252;18.688;2023-04-15T00:25:56;9.60;99.90
36924;DHT22;22841;50.252;18.688;2023-04-15T00:28:22;9.50;99.90
36924;DHT22;22841;50.252;18.688;2023-04-15T00:30:49;9.50;99.90
36924;DHT22;22841;50.252;18.688;2023-04-15T00:33:15;9.40;99.90
36924;DHT22;22841;50.252;18.688;2023-04-15T00:35:41;9.30;99.90
36924;DHT22;22841;50.252;18.688;2023-04-15T00:38:07;9.30;99.90
36924;DHT22;22841;50.252;18.688;2023-04-15T00:40:34;9.20;99.90
36924;DHT22;22841;50.252;18.688;2023-04-15T00:43:00;9.20;99.90
36924;DHT22;22841;50.252;18.688;2023-04-15T00:45:26;9.20;99.90
36924;DHT22;22841;50.252;18.688;2023-04-15T00:47:53;9.30;99.90
36924;DHT22;22841;50.252;18.688;2023-04-15T00:50:19;9.20;99.90
36924;DHT22;22841;50.252;18.688;2023-04-15T00:52:45;9.20;99.90
36924;DHT22;22841;50.252;18.688;2023-04-15T00:55:11;9.20;99.90
36924;DHT22;22841;50.252;18.688;2023-04-15T00:57:39;9.10;99.90
36924;DHT22;22841;50.252;18.688;2023-04-15T01:00:05;9.10;99.90
36924;DHT22;22841;50.252;18.688;2023-04-15T01:02:36;9.10;99.90
36924;DHT22;22841;50.252;18.688;2023-04-15T01:05:03;9.00;99.90
36924;DHT22;22841;50.252;18.688;2023-04-15T01:07:30;9.00;99.90
36924;DHT22;22841;50.252;18.688;2023-04-15T01:09:56;9.00;99.90
36924;DHT22;22841;50.252;18.688;2023-04-15T01:12:24;8.90;99.90
36924;DHT22;22841;50.252;18.688;2023-04-15T01:14:52;8.90;99.90
36924;DHT22;22841;50.252;18.688;2023-04-15T01:17:18;8.90;99.90
36924;DHT22;22841;50.252;18.688;2023-04-15T01:19:44;8.90;99.90
36924;DHT22;22841;50.252;18.688;2023-04-15T01:22:10;8.80;99.90
36924;DHT22;22841;50.252;18.688;2023-04-15T01:24:36;8.80;99.90
36924;DHT22;22841;50.252;18.688;2023-04-15T01:27:03;8.80;99.90
36924;DHT22;22841;50.252;18.688;2023-04-15T01:29:31;8.80;99.90
36924;DHT22;22841;50.252;18.688;2023-04-15T01:31:58;8.80;99.90
36924;DHT22;22841;50.252;18.688;2023-04-15T01:34:24;8.80;99.90
36924;DHT22;22841;50.252;18.688;2023-04-15T01:36:50;8.80;99.90
36924;DHT22;22841;50.252;18.688;2023-04-15T01:39:16;8.80;99.90
36924;DHT22;22841;50.252;18.688;2023-04-15T01:41:42;8.80;99.90
36924;DHT22;22841;50.252;18.688;2023-04-15T01:44:08;8.80;99.90
36924;DHT22;22841;50.252;18.688;2023-04-15T01:46:35;8.80;99.90
36924;DHT22;22841;50.252;18.688;2023-04-15T01:49:01;8.80;99.90
36924;DHT22;22841;50.252;18.688;2023-04-15T01:51:27;8.80;99.90
36924;DHT22;22841;50.252;18.688;2023-04-15T01:53:53;8.80;99.90
36924;DHT22;22841;50.252;18.688;2023-04-15T01:56:21;8.70;99.90
36924;DHT22;22841;50.252;18.688;2023-04-15T01:58:49;8.70;99.90
36924;DHT22;22841;50.252;18.688;2023-04-15T02:01:15;8.70;99.90
36924;DHT22;22841;50.252;18.688;2023-04-15T02:03:44;8.70;99.90
36924;DHT22;22841;50.252;18.688;2023-04-15T02:06:11;8.60;99.90
36924;DHT22;22841;50.252;18.688;2023-04-15T02:08:37;8.70;99.90
36924;DHT22;22841;50.252;18.688;2023-04-15T02:11:03;8.70;99.90
36924;DHT22;22841;50.252;18.688;2023-04-15T02:13:29;8.60;99.90
36924;DHT22;22841;50.252;18.688;2023-04-15T02:15:56;8.70;99.90
36924;DHT22;22841;50.252;18.688;2023-04-15T02:18:22;8.60;99.90
36924;DHT22;22841;50.252;18.688;2023-04-15T02:20:51;8.60;99.90
36924;DHT22;22841;50.252;18.688;2023-04-15T02:23:17;8.60;99.90
36924;DHT22;22841;50.252;18.688;2023-04-15T02:25:43;8.60;99.90
36924;DHT22;22841;50.252;18.688;2023-04-15T02:28:09;8.50;99.90
36924;DHT22;22841;50.252;18.688;2023-04-15T02:30:35;8.60;99.90
36924;DHT22;22841;50.252;18.688;2023-04-15T02:33:01;8.50;99.90
36924;DHT22;22841;50.252;18.688;2023-04-15T02:35:27;8.50;99.90
36924;DHT22;22841;50.252;18.688;2023-04-15T02:37:54;8.50;99.90
36924;DHT22;22841;50.252;18.688;2023-04-15T02:40:20;8.40;99.90
36924;DHT22;22841;50.252;18.688;2023-04-15T02:42:46;8.40;99.90
36924;DHT22;22841;50.252;18.688;2023-04-15T02:45:12;8.40;99.90
36924;DHT22;22841;50.252;18.688;2023-04-15T02:47:38;8.30;99.90
36924;DHT22;22841;50.252;18.688;2023-04-15T02:50:07;8.30;99.90
36924;DHT22;22841;50.252;18.688;2023-04-15T02:52:35;8.30;99.90
36924;DHT22;22841;50.252;18.688;2023-04-15T02:55:01;8.30;99.90
36924;DHT22;22841;50.252;18.688;2023-04-15T02:57:29;8.30;99.90
36924;DHT22;22841;50.252;18.688;2023-04-15T02:59:55;8.30;99.90
36924;DHT22;22841;50.252;18.688;2023-04-15T03:02:21;8.20;99.90
36924;DHT22;22841;50.252;18.688;2023-04-15T03:04:47;8.20;99.90
36924;DHT22;22841;50.252;18.688;2023-04-15T03:07:13;8.20;99.90
36924;DHT22;22841;50.252;18.688;2023-04-15T03:09:39;8.20;99.90
36924;DHT22;22841;50.252;18.688;2023-04-15T03:12:06;8.10;99.90
36924;DHT22;22841;50.252;18.688;2023-04-15T03:14:32;8.10;99.90
36924;DHT22;22841;50.252;18.688;2023-04-15T03:16:58;8.10;99.90
36924;DHT22;22841;50.252;18.688;2023-04-15T03:19:24;8.00;99.90
36924;DHT22;22841;50.252;18.688;2023-04-15T03:21:50;8.00;99.90
36924;DHT22;22841;50.252;18.688;2023-04-15T03:24:17;7.90;99.90
36924;DHT22;22841;50.252;18.688;2023-04-15T03:26:43;7.90;99.90
36924;DHT22;22841;50.252;18.688;2023-04-15T03:29:09;7.80;99.90
36924;DHT22;22841;50.252;18.688;2023-04-15T03:31:35;7.90;99.90
36924;DHT22;22841;50.252;18.688;2023-04-15T03:34:01;7.90;99.90
36924;DHT22;22841;50.252;18.688;2023-04-15T03:36:31;7.90;99.90
36924;DHT22;22841;50.252;18.688;2023-04-15T03:38:58;7.90;99.90
36924;DHT22;22841;50.252;18.688;2023-04-15T03:41:24;7.80;99.90
36924;DHT22;22841;50.252;18.688;2023-04-15T03:43:51;7.80;99.90
36924;DHT22;22841;50.252;18.688;2023-04-15T03:46:17;7.80;99.90
36924;DHT22;22841;50.252;18.688;2023-04-15T03:48:43;7.80;99.90
36924;DHT22;22841;50.252;18.688;2023-04-15T03:51:10;7.80;99.90
36924;DHT22;22841;50.252;18.688;2023-04-15T03:53:36;7.90;99.90
36924;DHT22;22841;50.252;18.688;2023-04-15T03:56:02;7.90;99.90
36924;DHT22;22841;50.252;18.688;2023-04-15T03:58:28;7.90;99.90
36924;DHT22;22841;50.252;18.688;2023-04-15T04:00:54;7.90;99.90
36924;DHT22;22841;50.252;18.688;2023-04-15T04:03:20;7.80;99.90
36924;DHT22;22841;50.252;18.688;2023-04-15T04:05:46;7.80;99.90
36924;DHT22;22841;50.252;18.688;2023-04-15T04:08:12;7.80;99.90
36924;DHT22;22841;50.252;18.688;2023-04-15T04:10:39;7.80;99.90
36924;DHT22;22841;50.252;18.688;2023-04-15T04:13:05;7.80;99.90
36924;DHT22;22841;50.252;18.688;2023-04-15T04:15:31;7.70;99.90
36924;DHT22;22841;50.252;18.688;2023-04-15T04:17:57;7.70;99.90
36924;DHT22;22841;50.252;18.688;2023-04-15T04:20:23;7.60;99.90
36924;DHT22;22841;50.252;18.688;2023-04-15T04:22:49;7.60;99.90
36924;DHT22;22841;50.252;18.688;2023-04-15T04:25:15;7.60;99.90
36924;DHT22;22841;50.252;18.688;2023-04-15T04:27:41;7.60;99.90
36924;DHT22;22841;50.252;18.688;2023-04-15T04:30:08;7.60;99.90
36924;DHT22;22841;50.252;18.688;2023-04-15T04:32:34;7.50;99.90
36924;DHT22;22841;50.252;18.688;2023-04-15T04:35:00;7.50;99.90
36924;DHT22;22841;50.252;18.688;2023-04-15T04:37:26;7.50;99.90
36924;DHT22;22841;50.252;18.688;2023-04-15T04:39:52;7.40;99.90
36924;DHT22;22841;50.252;18.688;2023-04-15T04:42:18;7.50;99.90
36924;DHT22;22841;50.252;18.688;2023-04-15T04:44:44;7.50;99.90
36924;DHT22;22841;50.252;18.688;2023-04-15T04:47:10;7.50;99.90
36924;DHT22;22841;50.252;18.688;2023-04-15T04:49:36;7.50;99.90
36924;DHT22;22841;50.252;18.688;2023-04-15T04:52:02;7.50;99.90
36924;DHT22;22841;50.252;18.688;2023-04-15T04:54:28;7.50;99.90
36924;DHT22;22841;50.252;18.688;2023-04-15T04:56:56;7.50;99.90
36924;DHT22;22841;50.252;18.688;2023-04-15T04:59:23;7.50;99.90
36924;DHT22;22841;50.252;18.688;2023-04-15T05:01:49;7.50;99.90
36924;DHT22;22841;50.252;18.688;2023-04-15T05:04:15;7.50;99.90
36924;DHT22;22841;50.252;18.688;2023-04-15T05:06:41;7.50;99.90
36924;DHT22;22841;50.252;18.688;2023-04-15T05:09:07;7.50;99.90
36924;DHT22;22841;50.252;18.688;2023-04-15T05:11:33;7.50;99.90
36924;DHT22;22841;50.252;18.688;2023-04-15T05:13:59;7.50;99.90
36924;DHT22;22841;50.252;18.688;2023-04-15T05:16:27;7.50;99.90
36924;DHT22;22841;50.252;18.688;2023-04-15T05:18:53;7.50;99.90
36924;DHT22;22841;50.252;18.688;2023-04-15T05:21:19;7.60;99.90
36924;DHT22;22841;50.252;18.688;2023-04-15T05:23:46;7.60;99.90
36924;DHT22;22841;50.252;18.688;2023-04-15T05:26:12;7.60;99.90
36924;DHT22;22841;50.252;18.688;2023-04-15T05:28:38;7.70;99.90
36924;DHT22;22841;50.252;18.688;2023-04-15T05:31:04;7.70;99.90
36924;DHT22;22841;50.252;18.688;2023-04-15T05:33:30;7.80;99.90
36924;DHT22;22841;50.252;18.688;2023-04-15T05:35:56;7.80;99.90
36924;DHT22;22841;50.252;18.688;2023-04-15T05:38:22;7.80;99.90
36924;DHT22;22841;50.252;18.688;2023-04-15T05:40:48;7.80;99.90
36924;DHT22;22841;50.252;18.688;2023-04-15T05:43:14;7.80;99.90
36924;DHT22;22841;50.252;18.688;2023-04-15T05:45:40;7.80;99.90
36924;DHT22;22841;50.252;18.688;2023-04-15T05:48:06;7.80;99.90
36924;DHT22;22841;50.252;18.688;2023-04-15T05:50:33;7.80;99.90
36924;DHT22;22841;50.252;18.688;2023-04-15T05:52:59;7.90;99.90
36924;DHT22;22841;50.252;18.688;2023-04-15T05:55:25;8.00;99.90
36924;DHT22;22841;50.252;18.688;2023-04-15T05:57:52;8.00;99.90
36924;DHT22;22841;50.252;18.688;2023-04-15T06:00:18;8.00;99.90
36924;DHT22;22841;50.252;18.688;2023-04-15T06:02:44;8.00;99.90
36924;DHT22;22841;50.252;18.688;2023-04-15T06:05:10;8.10;99.90
36924;DHT22;22841;50.252;18.688;2023-04-15T06:07:37;8.10;99.90
36924;DHT22;22841;50.252;18.688;2023-04-15T06:10:04;8.10;99.90
36924;DHT22;22841;50.252;18.688;2023-04-15T06:12:30;8.20;99.90
36924;DHT22;22841;50.252;18.688;2023-04-15T06:14:56;8.20;99.90
36924;DHT22;22841;50.252;18.688;2023-04-15T06:17:22;8.30;99.90
36924;DHT22;22841;50.252;18.688;2023-04-15T06:19:48;8.30;99.90
36924;DHT22;22841;50.252;18.688;2023-04-15T06:22:23;8.40;99.90
36924;DHT22;22841;50.252;18.688;2023-04-15T06:24:49;8.40;99.90
36924;DHT22;22841;50.252;18.688;2023-04-15T06:27:16;8.40;99.90
36924;DHT22;22841;50.252;18.688;2023-04-15T06:29:42;8.50;99.90
36924;DHT22;22841;50.252;18.688;2023-04-15T06:32:09;8.50;99.90
36924;DHT22;22841;50.252;18.688;2023-04-15T06:34:36;8.60;99.90
36924;DHT22;22841;50.252;18.688;2023-04-15T06:37:02;8.70;99.90
36924;DHT22;22841;50.252;18.688;2023-04-15T06:39:28;8.70;99.90
36924;DHT22;22841;50.252;18.688;2023-04-15T06:41:54;8.70;99.90
36924;DHT22;22841;50.252;18.688;2023-04-15T06:44:21;8.80;99.90
36924;DHT22;22841;50.252;18.688;2023-04-15T06:46:47;8.90;99.90
36924;DHT22;22841;50.252;18.688;2023-04-15T06:49:13;8.90;99.90
36924;DHT22;22841;50.252;18.688;2023-04-15T06:51:41;9.00;99.90
36924;DHT22;22841;50.252;18.688;2023-04-15T06:54:07;9.00;99.90
36924;DHT22;22841;50.252;18.688;2023-04-15T06:56:33;9.00;99.90
36924;DHT22;22841;50.252;18.688;2023-04-15T06:58:59;8.90;99.90
36924;DHT22;22841;50.252;18.688;2023-04-15T07:01:26;9.00;99.90
36924;DHT22;22841;50.252;18.688;2023-04-15T07:03:52;9.00;99.90
36924;DHT22;22841;50.252;18.688;2023-04-15T07:06:18;9.10;99.90
36924;DHT22;22841;50.252;18.688;2023-04-15T07:08:44;9.10;99.90
36924;DHT22;22841;50.252;18.688;2023-04-15T07:11:10;9.20;99.90
36924;DHT22;22841;50.252;18.688;2023-04-15T07:13:37;9.30;99.90
36924;DHT22;22841;50.252;18.688;2023-04-15T07:16:03;9.40;99.90
36924;DHT22;22841;50.252;18.688;2023-04-15T07:18:29;9.40;99.90
36924;DHT22;22841;50.252;18.688;2023-04-15T07:20:55;9.40;99.90
36924;DHT22;22841;50.252;18.688;2023-04-15T07:23:21;9.40;99.90
36924;DHT22;22841;50.252;18.688;2023-04-15T07:25:47;9.40;99.90
36924;DHT22;22841;50.252;18.688;2023-04-15T07:28:13;9.50;99.90
36924;DHT22;22841;50.252;18.688;2023-04-15T07:30:39;9.60;99.90
36924;DHT22;22841;50.252;18.688;2023-04-15T07:33:06;9.80;99.90
36924;DHT22;22841;50.252;18.688;2023-04-15T07:35:32;9.80;99.90
36924;DHT22;22841;50.252;18.688;2023-04-15T07:37:58;9.90;99.90
36924;DHT22;22841;50.252;18.688;2023-04-15T07:40:26;10.10;99.90
36924;DHT22;22841;50.252;18.688;2023-04-15T07:42:53;10.20;99.90
36924;DHT22;22841;50.252;18.688;2023-04-15T07:45:19;10.40;99.90
36924;DHT22;22841;50.252;18.688;2023-04-15T07:47:45;10.50;99.90
36924;DHT22;22841;50.252;18.688;2023-04-15T07:50:11;10.80;99.90
36924;DHT22;22841;50.252;18.688;2023-04-15T07:52:37;10.80;99.90
36924;DHT22;22841;50.252;18.688;2023-04-15T07:55:07;10.90;99.90
36924;DHT22;22841;50.252;18.688;2023-04-15T07:57:34;11.00;99.90
36924;DHT22;22841;50.252;18.688;2023-04-15T08:00:01;10.90;99.90
36924;DHT22;22841;50.252;18.688;2023-04-15T08:02:28;11.00;99.90
36924;DHT22;22841;50.252;18.688;2023-04-15T08:04:54;11.20;99.90
36924;DHT22;22841;50.252;18.688;2023-04-15T08:07:20;11.20;99.90
36924;DHT22;22841;50.252;18.688;2023-04-15T08:09:47;11.20;99.90
36924;DHT22;22841;50.252;18.688;2023-04-15T08:12:13;11.40;99.90
36924;DHT22;22841;50.252;18.688;2023-04-15T08:14:39;11.40;99.90
36924;DHT22;22841;50.252;18.688;2023-04-15T08:17:05;11.50;99.90
36924;DHT22;22841;50.252;18.688;2023-04-15T08:19:32;11.50;99.90
36924;DHT22;22841;50.252;18.688;2023-04-15T08:21:58;11.60;99.90
36924;DHT22;22841;50.252;18.688;2023-04-15T08:24:24;11.70;99.90
36924;DHT22;22841;50.252;18.688;2023-04-15T08:26:51;11.80;99.90
36924;DHT22;22841;50.252;18.688;2023-04-15T08:29:17;11.80;99.90
36924;DHT22;22841;50.252;18.688;2023-04-15T08:31:43;11.80;99.90
36924;DHT22;22841;50.252;18.688;2023-04-15T08:34:10;11.70;99.90
36924;DHT22;22841;50.252;18.688;2023-04-15T08:36:37;11.70;99.90
36924;DHT22;22841;50.252;18.688;2023-04-15T08:39:03;11.80;99.90
36924;DHT22;22841;50.252;18.688;2023-04-15T08:41:39;11.70;99.90
36924;DHT22;22841;50.252;18.688;2023-04-15T08:44:05;11.80;99.90
36924;DHT22;22841;50.252;18.688;2023-04-15T08:46:32;12.00;99.90
36924;DHT22;22841;50.252;18.688;2023-04-15T08:48:59;12.20;99.90
36924;DHT22;22841;50.252;18.688;2023-04-15T08:51:28;12.20;99.90
36924;DHT22;22841;50.252;18.688;2023-04-15T08:53:54;12.20;99.90
36924;DHT22;22841;50.252;18.688;2023-04-15T08:56:24;12.40;99.90
36924;DHT22;22841;50.252;18.688;2023-04-15T08:58:52;12.50;99.90
36924;DHT22;22841;50.252;18.688;2023-04-15T09:01:18;12.60;99.90
36924;DHT22;22841;50.252;18.688;2023-04-15T09:03:45;12.50;99.90
36924;DHT22;22841;50.252;18.688;2023-04-15T09:06:12;12.60;99.90
36924;DHT22;22841;50.252;18.688;2023-04-15T09:08:38;12.80;99.90
36924;DHT22;22841;50.252;18.688;2023-04-15T09:11:05;12.80;99.90
36924;DHT22;22841;50.252;18.688;2023-04-15T09:13:31;12.90;99.90
36924;DHT22;22841;50.252;18.688;2023-04-15T09:15:57;12.80;99.90
36924;DHT22;22841;50.252;18.688;2023-04-15T09:18:31;12.90;99.90
36924;DHT22;22841;50.252;18.688;2023-04-15T09:21:11;13.10;99.90
36924;DHT22;22841;50.252;18.688;2023-04-15T09:23:57;13.10;99.90
36924;DHT22;22841;50.252;18.688;2023-04-15T09:26:35;13.00;99.90
36924;DHT22;22841;50.252;18.688;2023-04-15T09:29:05;13.10;99.90
36924;DHT22;22841;50.252;18.688;2023-04-15T09:31:32;13.00;99.90
36924;DHT22;22841;50.252;18.688;2023-04-15T09:33:58;13.00;99.90
36924;DHT22;22841;50.252;18.688;2023-04-15T09:36:24;13.00;99.90
36924;DHT22;22841;50.252;18.688;2023-04-15T09:38:56;13.20;99.90
36924;DHT22;22841;50.252;18.688;2023-04-15T09:41:24;13.40;99.90
36924;DHT22;22841;50.252;18.688;2023-04-15T09:43:50;13.40;99.90
36924;DHT22;22841;50.252;18.688;2023-04-15T09:46:16;13.50;99.90
36924;DHT22;22841;50.252;18.688;2023-04-15T09:48:42;13.60;99.90
36924;DHT22;22841;50.252;18.688;2023-04-15T09:51:08;13.60;99.90
36924;DHT22;22841;50.252;18.688;2023-04-15T09:53:35;13.60;99.90
36924;DHT22;22841;50.252;18.688;2023-04-15T09:56:02;13.60;99.90
36924;DHT22;22841;50.252;18.688;2023-04-15T09:58:29;13.50;99.90
36924;DHT22;22841;50.252;18.688;2023-04-15T10:00:57;13.50;99.90
36924;DHT22;22841;50.252;18.688;2023-04-15T10:03:25;13.50;99.90
36924;DHT22;22841;50.252;18.688;2023-04-15T10:05:54;13.40;99.90
36924;DHT22;22841;50.252;18.688;2023-04-15T10:08:22;13.30;99.90
36924;DHT22;22841;50.252;18.688;2023-04-15T10:10:50;13.20;99.90
36924;DHT22;22841;50.252;18.688;2023-04-15T10:13:19;13.10;99.90
36924;DHT22;22841;50.252;18.688;2023-04-15T10:15:59;13.00;99.90
36924;DHT22;22841;50.252;18.688;2023-04-15T10:18:27;13.10;99.90
36924;DHT22;22841;50.252;18.688;2023-04-15T10:20:54;13.20;99.90
36924;DHT22;22841;50.252;18.688;2023-04-15T10:23:22;13.30;99.90
36924;DHT22;22841;50.252;18.688;2023-04-15T10:25:51;13.50;99.90
36924;DHT22;22841;50.252;18.688;2023-04-15T10:28:19;13.50;99.90
36924;DHT22;22841;50.252;18.688;2023-04-15T10:30:48;13.50;99.90
36924;DHT22;22841;50.252;18.688;2023-04-15T10:33:16;13.40;99.90
36924;DHT22;22841;50.252;18.688;2023-04-15T10:35:43;13.30;99.90
36924;DHT22;22841;50.252;18.688;2023-04-15T10:41:11;13.60;99.90
36924;DHT22;22841;50.252;18.688;2023-04-15T10:43:38;13.40;99.90
36924;DHT22;22841;50.252;18.688;2023-04-15T10:46:05;13.40;99.90
36924;DHT22;22841;50.252;18.688;2023-04-15T10:48:31;13.20;99.90
36924;DHT22;22841;50.252;18.688;2023-04-15T10:51:00;13.20;99.90
36924;DHT22;22841;50.252;18.688;2023-04-15T10:53:30;13.10;99.90
36924;DHT22;22841;50.252;18.688;2023-04-15T10:55:57;13.00;99.90
36924;DHT22;22841;50.252;18.688;2023-04-15T10:58:24;12.90;99.90
36924;DHT22;22841;50.252;18.688;2023-04-15T11:00:52;12.90;99.90
36924;DHT22;22841;50.252;18.688;2023-04-15T11:03:39;13.00;99.90
36924;DHT22;22841;50.252;18.688;2023-04-15T11:06:06;13.10;99.90
36924;DHT22;22841;50.252;18.688;2023-04-15T11:08:57;13.20;99.90
36924;DHT22;22841;50.252;18.688;2023-04-15T11:12:05;13.20;99.90
36924;DHT22;22841;50.252;18.688;2023-04-15T11:14:32;13.20;99.90
36924;DHT22;22841;50.252;18.688;2023-04-15T11:16:59;13.20;99.90
36924;DHT22;22841;50.252;18.688;2023-04-15T11:19:25;13.20;99.90
36924;DHT22;22841;50.252;18.688;2023-04-15T11:21:52;13.10;99.90
36924;DHT22;22841;50.252;18.688;2023-04-15T11:24:24;13.10;99.90
36924;DHT22;22841;50.252;18.688;2023-04-15T11:26:56;13.00;99.90
36924;DHT22;22841;50.252;18.688;2023-04-15T11:29:28;12.90;99.90
36924;DHT22;22841;50.252;18.688;2023-04-15T11:32:08;12.90;99.90
36924;DHT22;22841;50.252;18.688;2023-04-15T11:34:34;12.70;99.90
36924;DHT22;22841;50.252;18.688;2023-04-15T11:37:07;12.70;99.90
36924;DHT22;22841;50.252;18.688;2023-04-15T11:39:33;12.60;99.90
36924;DHT22;22841;50.252;18.688;2023-04-15T11:41:59;12.50;99.90
36924;DHT22;22841;50.252;18.688;2023-04-15T11:44:25;12.50;99.90
36924;DHT22;22841;50.252;18.688;2023-04-15T11:46:51;12.40;99.90
36924;DHT22;22841;50.252;18.688;2023-04-15T11:49:28;12.40;99.90
36924;DHT22;22841;50.252;18.688;2023-04-15T11:51:54;12.40;99.90
36924;DHT22;22841;50.252;18.688;2023-04-15T11:54:20;12.30;99.90
36924;DHT22;22841;50.252;18.688;2023-04-15T11:56:50;12.20;99.90
36924;DHT22;22841;50.252;18.688;2023-04-15T11:59:17;12.10;99.90
36924;DHT22;22841;50.252;18.688;2023-04-15T12:01:43;12.00;99.90
36924;DHT22;22841;50.252;18.688;2023-04-15T12:04:13;11.90;99.90
36924;DHT22;22841;50.252;18.688;2023-04-15T12:06:39;11.80;99.90
36924;DHT22;22841;50.252;18.688;2023-04-15T12:11:36;11.80;99.90
36924;DHT22;22841;50.252;18.688;2023-04-15T12:16:29;12.10;99.90
36924;DHT22;22841;50.252;18.688;2023-04-15T12:18:57;12.20;99.90
36924;DHT22;22841;50.252;18.688;2023-04-15T12:21:25;12.40;99.90
36924;DHT22;22841;50.252;18.688;2023-04-15T12:23:54;12.60;99.90
36924;DHT22;22841;50.252;18.688;2023-04-15T12:26:29;12.70;99.90
36924;DHT22;22841;50.252;18.688;2023-04-15T12:29:04;12.90;99.90
36924;DHT22;22841;50.252;18.688;2023-04-15T12:31:30;13.20;99.90
36924;DHT22;22841;50.252;18.688;2023-04-15T12:33:57;13.40;99.90
36924;DHT22;22841;50.252;18.688;2023-04-15T12:36:24;13.50;99.90
36924;DHT22;22841;50.252;18.688;2023-04-15T12:38:50;13.60;99.90
36924;DHT22;22841;50.252;18.688;2023-04-15T12:41:16;13.70;99.90
36924;DHT22;22841;50.252;18.688;2023-04-15T12:43:45;13.80;99.90
36924;DHT22;22841;50.252;18.688;2023-04-15T12:46:12;13.90;99.90
36924;DHT22;22841;50.252;18.688;2023-04-15T12:48:39;13.90;99.90
36924;DHT22;22841;50.252;18.688;2023-04-15T12:51:05;14.00;99.90
36924;DHT22;22841;50.252;18.688;2023-04-15T12:53:31;14.20;99.90
36924;DHT22;22841;50.252;18.688;2023-04-15T12:55:57;14.30;99.90
36924;DHT22;22841;50.252;18.688;2023-04-15T12:58:23;14.40;99.90
36924;DHT22;22841;50.252;18.688;2023-04-15T13:00:49;14.60;99.90
36924;DHT22;22841;50.252;18.688;2023-04-15T13:03:15;14.70;99.90
36924;DHT22;22841;50.252;18.688;2023-04-15T13:05:41;15.00;99.90
36924;DHT22;22841;50.252;18.688;2023-04-15T13:08:07;15.10;99.90
36924;DHT22;22841;50.252;18.688;2023-04-15T13:10:34;15.20;99.90
36924;DHT22;22841;50.252;18.688;2023-04-15T13:13:04;15.20;99.90
36924;DHT22;22841;50.252;18.688;2023-04-15T13:15:30;15.20;99.90
36924;DHT22;22841;50.252;18.688;2023-04-15T13:17:56;15.20;99.90
36924;DHT22;22841;50.252;18.688;2023-04-15T13:20:23;15.20;99.90
36924;DHT22;22841;50.252;18.688;2023-04-15T13:22:51;15.00;99.90
36924;DHT22;22841;50.252;18.688;2023-04-15T13:25:18;15.00;99.90
36924;DHT22;22841;50.252;18.688;2023-04-15T13:27:44;14.80;99.90
36924;DHT22;22841;50.252;18.688;2023-04-15T13:30:10;14.60;99.90
36924;DHT22;22841;50.252;18.688;2023-04-15T13:32:36;14.30;99.90
36924;DHT22;22841;50.252;18.688;2023-04-15T13:35:03;14.20;99.90
36924;DHT22;22841;50.252;18.688;2023-04-15T13:37:30;14.10;99.90
36924;DHT22;22841;50.252;18.688;2023-04-15T13:39:56;14.00;99.90
36924;DHT22;22841;50.252;18.688;2023-04-15T13:42:23;13.80;99.90
36924;DHT22;22841;50.252;18.688;2023-04-15T13:44:50;13.80;99.90
36924;DHT22;22841;50.252;18.688;2023-04-15T13:47:19;13.70;99.90
36924;DHT22;22841;50.252;18.688;2023-04-15T13:49:45;13.60;99.90
36924;DHT22;22841;50.252;18.688;2023-04-15T13:52:12;13.60;99.90
36924;DHT22;22841;50.252;18.688;2023-04-15T13:54:38;13.50;99.90
36924;DHT22;22841;50.252;18.688;2023-04-15T13:57:05;13.40;99.90
36924;DHT22;22841;50.252;18.688;2023-04-15T13:59:34;13.30;99.90
36924;DHT22;22841;50.252;18.688;2023-04-15T14:02:00;13.30;99.90
36924;DHT22;22841;50.252;18.688;2023-04-15T14:04:28;13.20;99.90
36924;DHT22;22841;50.252;18.688;2023-04-15T14:06:54;13.10;99.90
36924;DHT22;22841;50.252;18.688;2023-04-15T14:09:20;13.10;99.90
36924;DHT22;22841;50.252;18.688;2023-04-15T14:11:49;13.10;99.90
36924;DHT22;22841;50.252;18.688;2023-04-15T14:14:16;13.00;99.90
36924;DHT22;22841;50.252;18.688;2023-04-15T14:16:42;13.00;99.90
36924;DHT22;22841;50.252;18.688;2023-04-15T14:19:08;12.90;99.90
36924;DHT22;22841;50.252;18.688;2023-04-15T14:21:34;12.90;99.90
36924;DHT22;22841;50.252;18.688;2023-04-15T14:24:00;12.90;99.90
36924;DHT22;22841;50.252;18.688;2023-04-15T14:26:26;12.80;99.90
36924;DHT22;22841;50.252;18.688;2023-04-15T14:28:53;12.80;99.90
36924;DHT22;22841;50.252;18.688;2023-04-15T14:31:19;12.80;99.90
36924;DHT22;22841;50.252;18.688;2023-04-15T14:33:45;12.80;99.90
36924;DHT22;22841;50.252;18.688;2023-04-15T14:36:11;12.70;99.90
36924;DHT22;22841;50.252;18.688;2023-04-15T14:38:37;12.70;99.90
36924;DHT22;22841;50.252;18.688;2023-04-15T14:41:05;12.70;99.90
36924;DHT22;22841;50.252;18.688;2023-04-15T14:43:31;12.70;99.90
36924;DHT22;22841;50.252;18.688;2023-04-15T14:45:58;12.70;99.90
36924;DHT22;22841;50.252;18.688;2023-04-15T14:48:24;12.80;99.90
36924;DHT22;22841;50.252;18.688;2023-04-15T14:50:51;12.80;99.90
36924;DHT22;22841;50.252;18.688;2023-04-15T14:53:17;12.80;99.90
36924;DHT22;22841;50.252;18.688;2023-04-15T14:55:43;12.90;99.90
36924;DHT22;22841;50.252;18.688;2023-04-15T14:58:10;12.90;99.90
36924;DHT22;22841;50.252;18.688;2023-04-15T15:00:39;12.90;99.90
36924;DHT22;22841;50.252;18.688;2023-04-15T15:03:09;12.90;99.90
36924;DHT22;22841;50.252;18.688;2023-04-15T15:05:44;12.90;99.90
36924;DHT22;22841;50.252;18.688;2023-04-15T15:08:11;12.90;99.90
36924;DHT22;22841;50.252;18.688;2023-04-15T15:10:38;12.90;99.90
36924;DHT22;22841;50.252;18.688;2023-04-15T15:13:06;13.00;99.90
36924;DHT22;22841;50.252;18.688;2023-04-15T15:15:33;12.90;99.90
36924;DHT22;22841;50.252;18.688;2023-04-15T15:17:59;12.90;99.90
36924;DHT22;22841;50.252;18.688;2023-04-15T15:20:26;12.90;99.90
36924;DHT22;22841;50.252;18.688;2023-04-15T15:22:52;12.90;99.90
36924;DHT22;22841;50.252;18.688;2023-04-15T15:25:18;12.80;99.90
36924;DHT22;22841;50.252;18.688;2023-04-15T15:27:44;12.80;99.90
36924;DHT22;22841;50.252;18.688;2023-04-15T15:30:11;12.70;99.90